Time;durP1;ratioP1;P1;durP2;ratioP2;P2;SDS_P1;SDS_P2;PMS_P1;PMS_P2;Temp;Humidity;BMP_temperature;BMP_pressure;BME280_temperature;BME280_humidity;BME280_pressure;Samples;Min_cycle;Max_cycle;Signal;HPM_P1;HPM_P2
2023/10/14 00:02:21;;;;;;;5.97;0.50;;;14.40;99.90;;;;;;5107320;27;20502;-68
2023/10/14 00:04:46;;;;;;;3.53;0.52;;;14.40;99.90;;;;;;5110652;27;20530;-67
2023/10/14 00:07:17;;;;;;;4.55;0.57;;;14.30;99.90;;;;;;5106534;27;20039;-67
2023/10/14 00:09:43;;;;;;;6.15;0.47;;;14.30;99.90;;;;;;5105404;27;20526;-67
2023/10/14 00:12:15;;;;;;;2.13;0.30;;;14.30;99.90;;;;;;5136382;27;20039;-68
2023/10/14 00:14:42;;;;;;;7.47;2.38;;;14.30;99.90;;;;;;5133722;27;20036;-68
2023/10/14 00:17:12;;;;;;;2.50;0.40;;;14.10;99.90;;;;;;5108213;27;20110;-68
2023/10/14 00:19:38;;;;;;;5.28;0.50;;;14.20;99.90;;;;;;5106821;27;20038;-68
2023/10/14 00:22:05;;;;;;;4.07;0.60;;;14.10;99.90;;;;;;5110890;27;20043;-68
2023/10/14 00:24:33;;;;;;;4.20;0.63;;;14.20;99.90;;;;;;5136381;27;20043;-68
2023/10/14 00:26:58;;;;;;;3.47;0.40;;;14.00;99.90;;;;;;5110139;27;20051;-68
2023/10/14 00:29:29;;;;;;;6.88;1.10;;;13.90;99.90;;;;;;5103869;27;20043;-68
2023/10/14 00:31:54;;;;;;;3.05;0.35;;;13.90;99.90;;;;;;5133975;27;20067;-68
2023/10/14 00:34:22;;;;;;;2.92;0.57;;;13.90;99.90;;;;;;5105945;27;20177;-68
2023/10/14 00:36:49;;;;;;;7.15;0.82;;;13.80;99.90;;;;;;5106852;27;20161;-68
2023/10/14 00:39:16;;;;;;;4.47;0.60;;;13.70;99.90;;;;;;5105813;27;20062;-67
2023/10/14 00:41:44;;;;;;;8.75;1.00;;;13.90;99.90;;;;;;5133749;27;20142;-67
2023/10/14 00:44:11;;;;;;;4.25;0.57;;;14.00;99.90;;;;;;5103956;27;20080;-67
2023/10/14 00:46:42;;;;;;;4.90;1.08;;;13.60;99.90;;;;;;5105541;27;20442;-67
2023/10/14 00:49:10;;;;;;;8.63;1.08;;;13.50;99.90;;;;;;5107857;27;20070;-68
2023/10/14 00:51:43;;;;;;;6.43;1.00;;;13.60;99.90;;;;;;5108989;27;20464;-68
2023/10/14 00:54:11;;;;;;;5.53;0.80;;;13.50;99.90;;;;;;5109546;27;20039;-68
2023/10/14 00:56:40;;;;;;;5.68;0.73;;;13.50;99.90;;;;;;5105362;27;20500;-68
2023/10/14 00:59:08;;;;;;;10.00;1.42;;;13.50;99.90;;;;;;5103983;27;20050;-68
2023/10/14 01:04:19;;;;;;;5.40;1.02;;;13.40;99.90;;;;;;5109142;27;20058;-68
2023/10/14 01:14:52;;;;;;;5.82;1.30;;;13.30;99.90;;;;;;5108224;27;20055;-68
2023/10/14 01:17:35;;;;;;;7.65;1.40;;;13.30;99.90;;;;;;5105315;27;20035;-67
2023/10/14 01:20:26;;;;;;;6.25;0.70;;;13.20;99.90;;;;;;5104073;27;20043;-67
2023/10/14 01:22:57;;;;;;;5.63;1.23;;;13.10;99.90;;;;;;5107568;27;20031;-67
2023/10/14 01:25:29;;;;;;;6.90;0.93;;;13.10;99.90;;;;;;5104478;27;20039;-67
2023/10/14 01:27:59;;;;;;;7.72;1.23;;;13.10;99.90;;;;;;5102362;27;20420;-67
2023/10/14 01:30:26;;;;;;;15.50;2.15;;;13.10;99.90;;;;;;5131651;27;20054;-67
2023/10/14 01:32:56;;;;;;;7.97;0.98;;;13.00;99.90;;;;;;5104124;27;20045;-67
2023/10/14 01:35:31;;;;;;;6.45;1.15;;;13.00;99.90;;;;;;5105636;27;20101;-67
2023/10/14 01:37:58;;;;;;;7.82;1.15;;;13.00;99.90;;;;;;5110019;27;20449;-67
2023/10/14 01:40:35;;;;;;;12.88;1.10;;;13.00;99.90;;;;;;5106054;27;20054;-67
2023/10/14 01:43:08;;;;;;;5.32;0.80;;;12.90;99.90;;;;;;5106757;27;20054;-67
2023/10/14 01:46:10;;;;;;;7.63;1.40;;;12.80;99.90;;;;;;5106066;27;20508;-67
2023/10/14 01:48:31;;;;;;;4.72;0.60;;;12.80;99.90;;;;;;5102440;27;20473;-67
2023/10/14 01:51:03;;;;;;;9.90;1.27;;;12.80;99.90;;;;;;5106270;27;20042;-68
2023/10/14 01:53:36;;;;;;;8.68;0.70;;;12.60;99.90;;;;;;5103481;27;20046;-67
2023/10/14 01:56:03;;;;;;;3.13;0.52;;;12.70;99.90;;;;;;5110603;27;20059;-67
2023/10/14 01:58:32;;;;;;;5.18;0.68;;;12.60;99.90;;;;;;5108061;27;20122;-67
2023/10/14 02:03:35;;;;;;;7.45;1.20;;;12.60;99.90;;;;;;5104921;27;20496;-67
2023/10/14 02:06:10;;;;;;;6.55;0.80;;;12.80;99.90;;;;;;5109303;27;20493;-67
2023/10/14 02:08:36;;;;;;;7.50;1.10;;;12.50;99.90;;;;;;5098785;27;20051;-68
2023/10/14 02:11:02;;;;;;;8.90;1.33;;;12.40;99.90;;;;;;5103531;27;20043;-68
2023/10/14 02:13:28;;;;;;;6.63;1.10;;;12.50;99.90;;;;;;5102408;27;20039;-68
2023/10/14 02:15:59;;;;;;;12.15;2.00;;;12.40;99.90;;;;;;5107459;27;20079;-68
2023/10/14 02:18:25;;;;;;;11.95;1.08;;;12.30;99.90;;;;;;5101664;27;20500;-68
2023/10/14 02:20:56;;;;;;;4.78;1.08;;;12.30;99.90;;;;;;5102366;27;20046;-68
2023/10/14 02:23:44;;;;;;;9.45;0.82;;;12.30;99.90;;;;;;5103349;27;20027;-68
2023/10/14 02:26:11;;;;;;;8.88;1.10;;;12.20;99.90;;;;;;5106726;27;20106;-67
2023/10/14 02:28:45;;;;;;;5.70;1.05;;;12.10;99.90;;;;;;5105156;27;20054;-67
2023/10/14 02:31:28;;;;;;;7.28;0.80;;;12.00;99.90;;;;;;5109218;27;20066;-67
2023/10/14 02:33:55;;;;;;;5.18;1.30;;;12.00;99.90;;;;;;5133321;27;20513;-67
2023/10/14 02:36:21;;;;;;;6.93;0.88;;;11.90;99.90;;;;;;5131191;27;20410;-67
2023/10/14 02:38:54;;;;;;;7.25;1.35;;;11.80;99.90;;;;;;5105517;27;20036;-67
2023/10/14 02:41:32;;;;;;;10.38;1.58;;;11.80;99.90;;;;;;5102037;27;20503;-67
2023/10/14 02:46:34;;;;;;;11.57;1.05;;;11.80;99.90;;;;;;5100768;28;20123;-67
2023/10/14 02:49:03;;;;;;;7.15;1.20;;;11.60;99.90;;;;;;5135410;27;20043;-67
2023/10/14 02:51:42;;;;;;;6.10;1.75;;;11.60;99.90;;;;;;5099254;27;20043;-67
2023/10/14 02:54:26;;;;;;;6.40;0.93;;;11.60;99.90;;;;;;5131241;27;20147;-67
2023/10/14 02:57:00;;;;;;;5.18;1.23;;;11.50;99.90;;;;;;5104321;27;20039;-67
2023/10/14 03:07:28;;;;;;;7.32;1.20;;;11.30;99.90;;;;;;5130591;27;20047;-67
2023/10/14 03:12:48;;;;;;;7.65;1.10;;;11.30;99.90;;;;;;5106977;27;20043;-67
2023/10/14 03:15:19;;;;;;;9.68;1.10;;;11.20;99.90;;;;;;5105276;27;20035;-67
2023/10/14 03:18:01;;;;;;;6.32;0.85;;;11.10;99.90;;;;;;5099983;27;20169;-67
2023/10/14 03:20:40;;;;;;;8.93;1.17;;;11.10;99.90;;;;;;5104338;27;20097;-67
2023/10/14 03:23:19;;;;;;;9.40;1.08;;;11.10;99.90;;;;;;5104105;27;20075;-67
2023/10/14 03:26:10;;;;;;;7.10;1.00;;;11.10;99.90;;;;;;5104641;28;20380;-67
2023/10/14 03:28:38;;;;;;;6.43;0.85;;;11.10;99.90;;;;;;5129664;27;20058;-67
2023/10/14 03:31:07;;;;;;;6.68;1.33;;;11.10;99.90;;;;;;5102698;28;20656;-67
2023/10/14 03:33:42;;;;;;;9.85;0.95;;;11.10;99.90;;;;;;5103166;28;20052;-67
2023/10/14 03:36:15;;;;;;;10.70;1.33;;;11.00;99.90;;;;;;5102971;28;20119;-67
2023/10/14 03:38:42;;;;;;;10.68;1.23;;;11.00;99.90;;;;;;5102834;28;20489;-67
2023/10/14 03:41:19;;;;;;;7.65;1.38;;;11.00;99.90;;;;;;5104139;28;20082;-67
2023/10/14 03:46:33;;;;;;;8.45;1.42;;;11.00;99.90;;;;;;5102003;28;20051;-67
2023/10/14 03:49:12;;;;;;;8.35;1.35;;;10.90;99.90;;;;;;5103181;28;20091;-67
2023/10/14 03:51:39;;;;;;;7.63;0.90;;;10.90;99.90;;;;;;5105725;28;20043;-67
2023/10/14 03:54:12;;;;;;;9.57;1.42;;;11.30;99.90;;;;;;5102593;28;20031;-67
2023/10/14 03:56:45;;;;;;;12.40;1.55;;;10.90;99.90;;;;;;5132554;27;20035;-67
2023/10/14 03:59:25;;;;;;;6.55;1.20;;;10.90;99.90;;;;;;5104461;28;20903;-67
2023/10/14 04:01:54;;;;;;;8.75;1.73;;;10.80;99.90;;;;;;5103188;28;20366;-67
2023/10/14 04:04:21;;;;;;;5.40;0.95;;;10.90;99.90;;;;;;5103144;28;20066;-67
2023/10/14 04:09:36;;;;;;;11.63;1.40;;;10.80;99.90;;;;;;5102140;28;20422;-67
2023/10/14 04:12:07;;;;;;;14.63;0.82;;;10.80;99.90;;;;;;5134251;27;20067;-67
2023/10/14 04:14:36;;;;;;;7.75;2.10;;;10.90;99.90;;;;;;5101098;27;20108;-67
2023/10/14 04:17:35;;;;;;;8.10;1.00;;;10.80;99.90;;;;;;5130320;27;20039;-67
2023/10/14 04:19:57;;;;;;;8.88;1.95;;;10.90;99.90;;;;;;5104624;28;20048;-67
2023/10/14 04:24:58;;;;;;;12.32;2.30;;;10.90;99.90;;;;;;5130628;27;20047;-67
2023/10/14 04:27:35;;;;;;;7.15;1.20;;;11.00;99.90;;;;;;5101645;28;20071;-67
2023/10/14 04:30:16;;;;;;;9.63;1.30;;;11.00;99.90;;;;;;5104441;28;20505;-67
2023/10/14 04:33:03;;;;;;;5.30;0.82;;;10.90;99.90;;;;;;5105586;28;20048;-67
2023/10/14 04:35:32;;;;;;;;;;;10.90;99.90;;;;;;5104613;28;20489;-67
2023/10/14 04:38:02;;;;;;;11.43;1.52;;;10.90;99.90;;;;;;5131976;27;20059;-67
2023/10/14 04:46:12;;;;;;;8.27;1.92;;;10.80;99.90;;;;;;5106317;27;20082;-68
2023/10/14 04:48:39;;;;;;;6.40;1.70;;;10.90;99.90;;;;;;5104300;27;20040;-67
2023/10/14 04:51:08;;;;;;;11.05;2.15;;;10.90;99.90;;;;;;5110022;27;20032;-67
2023/10/14 04:53:34;;;;;;;10.23;1.08;;;10.80;99.90;;;;;;5108451;27;20044;-67
2023/10/14 04:56:10;;;;;;;6.15;0.80;;;10.90;99.90;;;;;;5107631;27;20226;-67
2023/10/14 04:58:40;;;;;;;5.90;0.85;;;10.80;99.90;;;;;;5108914;27;20374;-67
2023/10/14 05:01:17;;;;;;;7.53;0.90;;;10.80;99.90;;;;;;5107560;27;20051;-67
2023/10/14 05:03:44;;;;;;;9.98;1.05;;;10.70;99.90;;;;;;5135693;27;20051;-67
2023/10/14 05:08:44;;;;;;;11.77;1.25;;;10.70;99.90;;;;;;5101693;27;20503;-67
2023/10/14 05:11:18;;;;;;;14.27;2.70;;;10.70;99.90;;;;;;5134446;27;20068;-67
2023/10/14 05:13:46;;;;;;;9.15;1.45;;;10.80;99.90;;;;;;5103918;27;20050;-67
2023/10/14 05:16:21;;;;;;;6.03;0.90;;;10.80;99.90;;;;;;5106121;27;21341;-67
2023/10/14 05:19:11;;;;;;;7.43;0.93;;;10.80;99.90;;;;;;5085543;27;20058;-67
2023/10/14 05:21:42;;;;;;;10.15;1.20;;;10.70;99.90;;;;;;5103939;27;20158;-67
2023/10/14 05:24:09;;;;;;;10.13;1.73;;;10.80;99.90;;;;;;5106113;27;20770;-67
2023/10/14 05:26:36;;;;;;;8.18;1.38;;;10.70;99.90;;;;;;5100908;27;20039;-67
2023/10/14 05:29:16;;;;;;;9.52;1.35;;;10.70;99.90;;;;;;5102771;27;20050;-67
2023/10/14 05:31:43;;;;;;;9.07;1.20;;;10.70;99.90;;;;;;5105634;27;21128;-67
2023/10/14 05:34:09;;;;;;;6.53;1.77;;;10.60;99.90;;;;;;5105227;27;20043;-67
2023/10/14 05:36:36;;;;;;;11.55;2.35;;;10.60;99.90;;;;;;5101047;27;20039;-67
2023/10/14 05:39:02;;;;;;;9.10;1.30;;;10.60;99.90;;;;;;5107693;27;20431;-67
2023/10/14 05:41:29;;;;;;;11.75;1.65;;;10.60;99.90;;;;;;5106912;27;20073;-68
2023/10/14 05:43:54;;;;;;;6.50;1.00;;;10.60;99.90;;;;;;5107367;27;20032;-67
2023/10/14 05:46:20;;;;;;;12.75;1.70;;;10.50;99.90;;;;;;5105006;27;20045;-67
2023/10/14 05:48:46;;;;;;;9.23;1.00;;;10.50;99.90;;;;;;5108833;27;20128;-67
2023/10/14 05:51:15;;;;;;;9.95;1.55;;;10.60;99.90;;;;;;5104099;27;20489;-67
2023/10/14 05:53:42;;;;;;;6.35;1.38;;;10.50;99.90;;;;;;5102244;27;20043;-67
2023/10/14 05:56:14;;;;;;;11.70;1.05;;;10.50;99.90;;;;;;5109125;27;20397;-67
2023/10/14 05:58:40;;;;;;;16.38;1.77;;;10.40;99.90;;;;;;5131898;27;20049;-67
2023/10/14 06:01:14;;;;;;;10.50;1.63;;;10.40;99.90;;;;;;5102526;27;20039;-67
2023/10/14 06:03:43;;;;;;;6.93;1.10;;;10.40;99.90;;;;;;5105150;27;20031;-67
2023/10/14 06:06:16;;;;;;;13.02;1.98;;;10.40;99.90;;;;;;5102769;27;20142;-67
2023/10/14 06:08:53;;;;;;;10.43;1.40;;;10.40;99.90;;;;;;5105672;27;20066;-67
2023/10/14 06:11:18;;;;;;;12.88;2.30;;;10.40;99.90;;;;;;5104488;27;20074;-67
2023/10/14 06:13:44;;;;;;;13.02;1.08;;;10.50;99.90;;;;;;5105186;27;20525;-67
2023/10/14 06:16:13;;;;;;;14.48;3.15;;;10.40;99.90;;;;;;5101404;27;20055;-67
2023/10/14 06:18:41;;;;;;;9.95;1.50;;;10.50;99.90;;;;;;5101732;27;20043;-67
2023/10/14 06:21:08;;;;;;;11.77;1.52;;;10.50;99.90;;;;;;5104675;27;20035;-67
2023/10/14 06:23:34;;;;;;;13.73;1.85;;;10.50;99.90;;;;;;5131908;27;20139;-67
2023/10/14 06:26:00;;;;;;;10.13;1.80;;;10.60;99.90;;;;;;5131927;27;20055;-67
2023/10/14 06:28:29;;;;;;;11.95;1.60;;;10.60;99.90;;;;;;5136075;27;20032;-67
2023/10/14 06:30:55;;;;;;;6.78;1.17;;;10.60;99.90;;;;;;5104670;27;20504;-67
2023/10/14 06:33:26;;;;;;;8.07;2.00;;;10.70;99.90;;;;;;5134069;27;20044;-67
2023/10/14 06:36:10;;;;;;;8.43;1.40;;;10.80;99.90;;;;;;5100990;28;20108;-67
2023/10/14 06:38:40;;;;;;;15.63;3.45;;;10.80;99.90;;;;;;5103387;27;20077;-67
2023/10/14 06:41:10;;;;;;;9.07;2.10;;;10.80;99.90;;;;;;5118598;27;20036;-67
2023/10/14 06:43:36;;;;;;;10.45;1.45;;;10.90;99.90;;;;;;5134194;27;20040;-67
2023/10/14 06:46:04;;;;;;;9.68;1.45;;;10.90;99.90;;;;;;5102144;28;20062;-67
2023/10/14 06:48:30;;;;;;;10.13;1.60;;;10.90;99.90;;;;;;5083317;28;20035;-67
2023/10/14 06:50:58;;;;;;;7.85;1.30;;;10.90;99.90;;;;;;5103113;27;20516;-67
2023/10/14 06:53:27;;;;;;;8.63;1.45;;;11.00;99.90;;;;;;5108266;27;20381;-71
2023/10/14 06:55:54;;;;;;;8.68;1.30;;;11.10;99.90;;;;;;5104605;27;20078;-68
2023/10/14 06:58:21;;;;;;;10.55;1.83;;;11.10;99.90;;;;;;5101658;28;20065;-67
2023/10/14 07:00:48;;;;;;;7.72;1.30;;;11.10;99.90;;;;;;5101262;28;20047;-67
2023/10/14 07:03:14;;;;;;;12.52;2.00;;;11.20;99.90;;;;;;5103975;27;20040;-67
2023/10/14 07:05:48;;;;;;;9.70;1.42;;;11.50;99.90;;;;;;5136078;27;20047;-67
2023/10/14 07:08:15;;;;;;;6.82;1.23;;;11.20;99.90;;;;;;5102172;28;20473;-67
2023/10/14 07:10:41;;;;;;;13.93;2.20;;;11.30;99.90;;;;;;5103168;27;20135;-67
2023/10/14 07:13:08;;;;;;;10.13;1.35;;;11.30;99.90;;;;;;5134099;27;20031;-67
2023/10/14 07:15:38;;;;;;;12.65;2.47;;;11.40;99.90;;;;;;5101641;28;20047;-67
2023/10/14 07:18:05;;;;;;;9.93;1.40;;;11.40;99.90;;;;;;5102878;28;20040;-67
2023/10/14 07:20:31;;;;;;;9.75;1.48;;;11.40;99.90;;;;;;5105452;28;20034;-67
2023/10/14 07:22:58;;;;;;;13.10;2.00;;;11.50;99.90;;;;;;5102207;28;20031;-67
2023/10/14 07:25:30;;;;;;;10.30;1.77;;;11.60;99.90;;;;;;5099426;28;20494;-67
2023/10/14 07:27:59;;;;;;;7.40;1.30;;;11.60;99.90;;;;;;5099380;28;20042;-67
2023/10/14 07:30:29;;;;;;;7.63;1.33;;;12.10;99.90;;;;;;5102711;28;20126;-67
2023/10/14 07:32:55;;;;;;;13.57;1.63;;;11.70;99.90;;;;;;5103595;28;20044;-67
2023/10/14 07:35:22;;;;;;;9.27;1.20;;;11.70;99.90;;;;;;5105321;28;20401;-67
2023/10/14 07:37:48;;;;;;;13.25;1.65;;;11.70;99.90;;;;;;5089639;28;20059;-67
2023/10/14 07:40:26;;;;;;;9.10;1.70;;;11.80;99.90;;;;;;5101547;28;20067;-67
2023/10/14 07:42:53;;;;;;;13.13;1.55;;;11.80;99.90;;;;;;5132955;27;20036;-67
2023/10/14 07:45:28;;;;;;;10.25;1.55;;;11.90;99.90;;;;;;5102067;28;20055;-67
2023/10/14 07:47:57;;;;;;;8.45;2.15;;;11.80;99.90;;;;;;5100654;28;20489;-67
2023/10/14 07:50:24;;;;;;;14.38;1.83;;;11.90;99.90;;;;;;5101187;28;20187;-67
2023/10/14 07:52:51;;;;;;;8.93;1.83;;;12.00;99.90;;;;;;5100968;28;20039;-67
2023/10/14 07:55:22;;;;;;;12.40;1.95;;;12.00;99.90;;;;;;5101900;28;20087;-67
2023/10/14 07:57:49;;;;;;;14.25;1.60;;;12.00;99.90;;;;;;5104431;28;20075;-67
2023/10/14 08:00:15;;;;;;;9.38;2.08;;;12.10;99.90;;;;;;5088122;28;20047;-67
2023/10/14 08:02:41;;;;;;;7.68;1.58;;;12.10;99.90;;;;;;5100320;28;20134;-67
2023/10/14 08:05:08;;;;;;;10.75;1.42;;;12.20;99.90;;;;;;5101691;28;20040;-67
2023/10/14 08:07:40;;;;;;;10.75;2.42;;;12.20;99.90;;;;;;5098286;28;20096;-67
2023/10/14 08:10:16;;;;;;;12.25;1.95;;;12.30;99.90;;;;;;5105124;28;20047;-67
2023/10/14 08:12:46;;;;;;;8.95;1.30;;;12.30;99.90;;;;;;5100605;28;20372;-67
2023/10/14 08:15:13;;;;;;;7.82;1.60;;;12.30;99.90;;;;;;5103123;28;20056;-67
2023/10/14 08:17:42;;;;;;;7.78;1.55;;;12.40;99.90;;;;;;5107265;27;20046;-67
2023/10/14 08:20:16;;;;;;;10.30;1.77;;;12.40;99.90;;;;;;5106811;27;20039;-67
2023/10/14 08:22:45;;;;;;;11.93;1.67;;;12.50;99.90;;;;;;5107136;27;20067;-67
2023/10/14 08:25:12;;;;;;;8.77;1.58;;;12.50;99.90;;;;;;5107591;27;20047;-67
2023/10/14 08:27:41;;;;;;;6.90;1.30;;;12.80;99.90;;;;;;5102716;28;20058;-67
2023/10/14 08:30:11;;;;;;;7.22;1.05;;;12.60;99.90;;;;;;5104951;28;20127;-67
2023/10/14 08:32:40;;;;;;;11.25;2.28;;;12.70;99.90;;;;;;5106229;27;20104;-67
2023/10/14 08:35:17;;;;;;;8.43;1.35;;;12.70;99.90;;;;;;5103959;28;20073;-67
2023/10/14 08:37:49;;;;;;;8.23;1.10;;;12.80;99.90;;;;;;5106761;27;20122;-67
2023/10/14 08:40:20;;;;;;;10.43;1.30;;;12.80;99.90;;;;;;5106313;27;20058;-67
2023/10/14 08:43:08;;;;;;;9.45;2.08;;;12.90;99.90;;;;;;5106414;27;20051;-67
2023/10/14 08:45:47;;;;;;;10.90;1.98;;;12.90;99.90;;;;;;5109116;27;20382;-67
2023/10/14 08:48:18;;;;;;;7.43;1.85;;;12.90;99.90;;;;;;5103179;27;20548;-67
2023/10/14 08:50:45;;;;;;;8.35;1.95;;;13.00;99.90;;;;;;5110268;27;20039;-67
2023/10/14 08:53:12;;;;;;;12.30;2.35;;;13.00;99.90;;;;;;5112446;27;20048;-67
2023/10/14 08:55:40;;;;;;;10.95;1.63;;;13.10;99.90;;;;;;5108010;27;20123;-67
2023/10/14 08:58:07;;;;;;;4.30;0.90;;;13.20;99.90;;;;;;5108649;27;20050;-67
2023/10/14 09:00:37;;;;;;;11.45;1.85;;;13.30;99.90;;;;;;5101237;27;20051;-67
2023/10/14 09:03:09;;;;;;;12.27;1.88;;;13.30;99.90;;;;;;5102515;27;20468;-67
2023/10/14 09:05:39;;;;;;;11.90;1.83;;;13.40;99.90;;;;;;5137209;27;20074;-67
2023/10/14 09:08:06;;;;;;;12.98;2.22;;;13.60;99.90;;;;;;5103283;27;20051;-67
2023/10/14 09:10:33;;;;;;;10.80;2.10;;;13.60;99.90;;;;;;5107791;27;20123;-67
2023/10/14 09:13:03;;;;;;;15.68;2.47;;;13.60;99.90;;;;;;5102957;27;20050;-67
2023/10/14 09:15:32;;;;;;;9.93;1.63;;;13.70;99.90;;;;;;5134324;27;20405;-67
2023/10/14 09:17:58;;;;;;;10.27;1.45;;;13.70;99.90;;;;;;5103042;27;20462;-67
2023/10/14 09:20:35;;;;;;;11.20;1.40;;;13.70;99.90;;;;;;5135301;27;20569;-67
2023/10/14 09:23:11;;;;;;;3.72;0.70;;;13.70;99.90;;;;;;5107694;27;20515;-67
2023/10/14 09:25:44;;;;;;;6.63;0.88;;;13.70;99.90;;;;;;5134465;27;20043;-67
2023/10/14 09:28:10;;;;;;;5.68;0.93;;;13.80;99.90;;;;;;5100630;28;20058;-67
2023/10/14 09:30:37;;;;;;;4.55;1.23;;;13.70;99.90;;;;;;5104622;28;20047;-67
2023/10/14 09:33:03;;;;;;;5.07;0.75;;;13.80;99.90;;;;;;5104255;28;20481;-67
2023/10/14 09:35:30;;;;;;;5.15;1.00;;;13.80;99.90;;;;;;5108431;27;20058;-67
2023/10/14 09:37:59;;;;;;;8.90;1.73;;;13.80;99.90;;;;;;5105896;27;20040;-67
2023/10/14 09:40:25;;;;;;;6.07;0.70;;;13.90;99.90;;;;;;5107154;27;20035;-67
2023/10/14 09:42:53;;;;;;;8.20;0.80;;;13.90;99.90;;;;;;5104749;27;20043;-67
2023/10/14 09:45:20;;;;;;;7.00;1.35;;;13.90;99.90;;;;;;5101798;27;20068;-67
2023/10/14 09:47:47;;;;;;;6.70;1.45;;;13.90;99.90;;;;;;5134245;27;20043;-67
2023/10/14 09:50:14;;;;;;;7.25;1.42;;;14.00;99.90;;;;;;5103442;28;20390;-67
2023/10/14 09:52:43;;;;;;;4.72;0.73;;;14.00;99.90;;;;;;5107777;27;20047;-67
2023/10/14 09:55:15;;;;;;;5.85;1.35;;;14.00;99.90;;;;;;5108610;27;20039;-67
2023/10/14 09:57:47;;;;;;;9.02;1.35;;;14.10;99.90;;;;;;5107254;27;20080;-67
2023/10/14 10:00:17;;;;;;;6.28;1.60;;;14.10;99.90;;;;;;5098779;27;20120;-67
2023/10/14 10:02:45;;;;;;;5.35;1.42;;;14.20;99.90;;;;;;5104083;28;20120;-67
2023/10/14 10:05:17;;;;;;;3.83;0.95;;;14.20;99.90;;;;;;5104806;28;20043;-67
2023/10/14 10:08:20;;;;;;;6.35;1.13;;;14.20;99.90;;;;;;5103944;27;20041;-67
2023/10/14 10:10:47;;;;;;;7.05;1.10;;;14.20;99.90;;;;;;5102314;27;20161;-67
2023/10/14 10:13:14;;;;;;;9.82;0.93;;;14.10;99.90;;;;;;5106014;27;21205;-67
2023/10/14 10:15:40;;;;;;;5.00;0.90;;;14.10;99.90;;;;;;5101986;28;20060;-67
2023/10/14 10:18:12;;;;;;;5.93;1.23;;;14.00;99.90;;;;;;5102454;28;20031;-67
2023/10/14 10:21:02;;;;;;;5.72;0.90;;;14.20;99.90;;;;;;5107810;27;20114;-67
2023/10/14 10:23:29;;;;;;;7.43;1.08;;;14.30;99.90;;;;;;5102977;28;20047;-67
2023/10/14 10:25:55;;;;;;;7.97;1.10;;;14.50;99.90;;;;;;5102484;27;20047;-67
2023/10/14 10:28:25;;;;;;;4.78;0.90;;;14.70;99.90;;;;;;5106921;27;20039;-67
2023/10/14 10:30:52;;;;;;;7.07;1.17;;;14.60;99.90;;;;;;5102315;27;20047;-67
2023/10/14 10:33:18;;;;;;;6.43;0.68;;;15.20;99.90;;;;;;5104622;28;20138;-67
2023/10/14 10:35:57;;;;;;;5.82;0.75;;;15.00;99.90;;;;;;5103392;27;20126;-67
2023/10/14 10:38:23;;;;;;;6.82;1.30;;;15.20;99.90;;;;;;5104022;28;20477;-67
2023/10/14 10:41:23;;;;;;;11.20;1.65;;;15.20;99.90;;;;;;5102676;28;20135;-67
2023/10/14 10:43:50;;;;;;;5.45;0.60;;;15.50;99.90;;;;;;5103704;28;20043;-67
2023/10/14 10:46:29;;;;;;;5.38;1.10;;;15.50;99.90;;;;;;5101857;28;20036;-68
2023/10/14 10:48:54;;;;;;;4.25;0.40;;;15.20;99.90;;;;;;5100579;28;20151;-68
2023/10/14 10:51:21;;;;;;;3.83;1.15;;;14.90;99.90;;;;;;5133508;27;20497;-68
2023/10/14 10:53:49;;;;;;;7.03;0.90;;;14.50;99.90;;;;;;5107215;27;20698;-68
2023/10/14 10:56:19;;;;;;;5.75;0.75;;;14.20;99.90;;;;;;5104657;28;20043;-68
2023/10/14 10:58:45;;;;;;;7.13;1.33;;;14.00;99.90;;;;;;5102269;27;20036;-68
2023/10/14 11:01:12;;;;;;;7.22;1.25;;;13.80;99.90;;;;;;5090908;28;20050;-68
2023/10/14 11:03:38;;;;;;;3.90;0.88;;;13.80;99.90;;;;;;5107085;28;20044;-68
2023/10/14 11:06:04;;;;;;;6.78;1.65;;;13.90;99.90;;;;;;5103120;28;20055;-68
2023/10/14 11:08:30;;;;;;;4.03;0.80;;;14.20;99.90;;;;;;5105119;27;20043;-68
2023/10/14 11:10:57;;;;;;;5.88;0.80;;;14.50;99.90;;;;;;5110281;27;20036;-68
2023/10/14 11:13:25;;;;;;;4.18;0.70;;;14.70;99.90;;;;;;5102371;28;20485;-68
2023/10/14 11:15:50;;;;;;;5.85;0.80;;;14.90;99.90;;;;;;5105015;28;20048;-68
2023/10/14 11:18:18;;;;;;;5.43;0.73;;;15.20;99.90;;;;;;5101289;28;20051;-68
2023/10/14 11:20:45;;;;;;;7.90;1.10;;;15.50;99.90;;;;;;5105046;28;20048;-68
2023/10/14 11:23:12;;;;;;;7.30;1.02;;;15.70;99.90;;;;;;5103986;28;20044;-68
2023/10/14 11:26:04;;;;;;;6.32;0.73;;;15.90;99.90;;;;;;5109333;27;20051;-68
2023/10/14 11:28:30;;;;;;;6.57;1.30;;;15.90;99.90;;;;;;5131353;27;20090;-68
2023/10/14 11:30:57;;;;;;;4.70;0.90;;;16.10;99.90;;;;;;5101989;28;20071;-68
2023/10/14 11:33:23;;;;;;;6.75;1.20;;;16.00;99.90;;;;;;5099756;28;20511;-68
2023/10/14 11:35:51;;;;;;;4.43;0.80;;;16.00;99.90;;;;;;5106729;28;20059;-67
2023/10/14 11:38:17;;;;;;;7.82;2.40;;;16.10;99.90;;;;;;5105472;28;20042;-67
2023/10/14 11:40:45;;;;;;;4.57;0.82;;;16.30;99.90;;;;;;5101869;28;20039;-67
2023/10/14 11:43:11;;;;;;;3.97;1.13;;;16.30;99.90;;;;;;5100891;28;20081;-67
2023/10/14 11:45:43;;;;;;;6.35;1.15;;;16.40;99.90;;;;;;5103687;28;20047;-68
2023/10/14 11:48:25;;;;;;;3.30;0.50;;;16.40;99.90;;;;;;5099338;28;20134;-68
2023/10/14 11:50:58;;;;;;;7.47;1.00;;;16.50;99.90;;;;;;5105245;28;20051;-67
2023/10/14 11:53:29;;;;;;;5.97;0.70;;;16.60;99.90;;;;;;5099297;27;20048;-68
2023/10/14 11:55:58;;;;;;;2.13;0.47;;;16.60;99.90;;;;;;5107194;27;20048;-68
2023/10/14 11:58:25;;;;;;;7.25;1.00;;;16.60;99.90;;;;;;5123115;27;20039;-68
2023/10/14 12:00:51;;;;;;;4.88;0.82;;;16.50;99.90;;;;;;5105031;27;20039;-68
2023/10/14 12:03:17;;;;;;;6.88;0.93;;;16.30;99.90;;;;;;5105549;27;20035;-68
2023/10/14 12:05:42;;;;;;;8.88;1.17;;;16.20;99.90;;;;;;5106070;27;20049;-68
2023/10/14 12:08:08;;;;;;;3.70;0.90;;;16.10;99.90;;;;;;5103578;27;20122;-68
2023/10/14 12:10:34;;;;;;;2.83;0.63;;;15.90;99.90;;;;;;5105799;27;20482;-67
2023/10/14 12:13:00;;;;;;;8.20;1.45;;;15.70;99.90;;;;;;5106247;27;20058;-67
2023/10/14 12:15:27;;;;;;;4.90;0.75;;;15.70;99.90;;;;;;5137736;27;20047;-67
2023/10/14 12:17:53;;;;;;;4.55;0.70;;;15.70;99.90;;;;;;5103394;28;20654;-67
2023/10/14 12:20:22;;;;;;;8.70;1.10;;;15.70;99.90;;;;;;5106418;27;20036;-67
2023/10/14 12:22:48;;;;;;;4.68;1.30;;;15.80;99.90;;;;;;5106007;27;20041;-68
2023/10/14 12:25:17;;;;;;;9.20;1.13;;;15.90;99.90;;;;;;5102173;27;20433;-67
2023/10/14 12:27:43;;;;;;;5.82;0.93;;;15.90;99.90;;;;;;5101751;27;20265;-67
2023/10/14 12:30:28;;;;;;;5.90;1.52;;;15.80;99.90;;;;;;5103971;27;20044;-67
2023/10/14 12:32:54;;;;;;;6.05;1.25;;;15.90;99.90;;;;;;5101228;27;20126;-67
2023/10/14 12:35:27;;;;;;;9.52;1.70;;;15.80;99.90;;;;;;5103872;27;20390;-67
2023/10/14 12:37:55;;;;;;;7.90;1.20;;;15.90;99.90;;;;;;5098678;27;20043;-68
2023/10/14 12:40:24;;;;;;;6.75;1.65;;;15.90;99.90;;;;;;5118037;27;20036;-67
2023/10/14 12:42:54;;;;;;;7.13;1.27;;;15.80;99.90;;;;;;5103858;27;20481;-67
2023/10/14 12:45:25;;;;;;;10.88;1.67;;;15.70;99.90;;;;;;5105863;27;20077;-67
2023/10/14 12:47:56;;;;;;;9.70;1.27;;;15.70;99.90;;;;;;5106026;27;20058;-67
2023/10/14 12:50:22;;;;;;;8.80;1.67;;;15.40;99.90;;;;;;5106747;27;20044;-67
2023/10/14 12:53:04;;;;;;;8.52;1.33;;;15.50;99.90;;;;;;5133266;27;20039;-69
2023/10/14 12:55:30;;;;;;;9.05;1.75;;;15.50;99.90;;;;;;5105937;28;20117;-69
2023/10/14 12:57:57;;;;;;;7.85;1.67;;;15.40;99.90;;;;;;5133602;27;20497;-69
2023/10/14 13:00:29;;;;;;;8.20;1.40;;;15.20;99.90;;;;;;5106897;27;20119;-69
2023/10/14 13:02:58;;;;;;;11.27;1.92;;;15.20;99.90;;;;;;5105813;27;20696;-69
2023/10/14 13:05:25;;;;;;;11.05;1.67;;;15.40;99.90;;;;;;5099734;28;20043;-69
2023/10/14 13:07:52;;;;;;;7.88;2.25;;;15.30;99.90;;;;;;5103417;27;20130;-69
2023/10/14 13:10:22;;;;;;;9.20;1.20;;;15.40;99.90;;;;;;5103149;27;20996;-69
2023/10/14 13:12:50;;;;;;;8.10;1.75;;;15.40;99.90;;;;;;5102922;27;20067;-69
2023/10/14 13:15:30;;;;;;;8.63;1.88;;;15.30;99.90;;;;;;5086438;28;20170;-69
2023/10/14 13:18:00;;;;;;;7.57;1.70;;;15.10;99.90;;;;;;5100424;27;20040;-69
2023/10/14 13:20:30;;;;;;;8.98;1.55;;;14.80;99.90;;;;;;5085484;28;20036;-69
2023/10/14 13:23:07;;;;;;;7.03;1.60;;;14.70;99.90;;;;;;5102347;27;20031;-69
2023/10/14 13:25:38;;;;;;;5.78;1.30;;;14.60;99.90;;;;;;5103417;27;20039;-69
2023/10/14 13:28:08;;;;;;;7.68;1.25;;;14.30;99.90;;;;;;5101706;28;20521;-69
2023/10/14 13:30:45;;;;;;;5.15;0.80;;;14.30;99.90;;;;;;5103952;27;20059;-69
2023/10/14 13:33:12;;;;;;;8.30;3.05;;;14.30;99.90;;;;;;5105552;27;20051;-69
2023/10/14 13:35:40;;;;;;;7.38;1.60;;;14.30;99.90;;;;;;5103091;27;20043;-69
2023/10/14 13:38:10;;;;;;;7.03;0.95;;;14.30;99.90;;;;;;5107933;27;20028;-69
2023/10/14 13:40:40;;;;;;;6.68;1.40;;;14.30;99.90;;;;;;5103778;27;20044;-69
2023/10/14 13:43:06;;;;;;;8.73;1.50;;;14.20;99.90;;;;;;5102200;27;20052;-69
2023/10/14 13:45:32;;;;;;;5.55;1.17;;;14.30;99.90;;;;;;5104147;27;20055;-69